sensor_id;sensor_type;location;lat;lon;timestamp;pressure;altitude;pressure_sealevel;temperature;humidity
3748;BME280;1889;50.058;8.688;2023-11-22T00:01:41;100923.80;;;9.80;58.93
3748;BME280;1889;50.058;8.688;2023-11-22T00:04:10;100929.50;;;9.72;59.18
3748;BME280;1889;50.058;8.688;2023-11-22T00:06:40;100937.81;;;9.27;59.54
3748;BME280;1889;50.058;8.688;2023-11-22T00:09:09;100938.28;;;9.48;59.79
3748;BME280;1889;50.058;8.688;2023-11-22T00:11:38;100944.39;;;9.59;59.80
3748;BME280;1889;50.058;8.688;2023-11-22T00:14:08;100946.59;;;9.55;59.17
3748;BME280;1889;50.058;8.688;2023-11-22T00:16:37;100940.00;;;9.67;58.70
3748;BME280;1889;50.058;8.688;2023-11-22T00:19:08;100943.49;;;9.74;58.86
3748;BME280;1889;50.058;8.688;2023-11-22T00:21:37;100957.95;;;9.27;59.61
3748;BME280;1889;50.058;8.688;2023-11-22T00:24:07;100959.27;;;9.33;60.28
3748;BME280;1889;50.058;8.688;2023-11-22T00:26:37;100954.91;;;9.45;60.23
3748;BME280;1889;50.058;8.688;2023-11-22T00:29:06;100973.74;;;9.39;60.44
3748;BME280;1889;50.058;8.688;2023-11-22T00:31:36;100966.73;;;9.45;60.42
3748;BME280;1889;50.058;8.688;2023-11-22T00:34:05;100975.33;;;8.67;62.04
3748;BME280;1889;50.058;8.688;2023-11-22T00:36:35;100975.81;;;8.82;62.04
3748;BME280;1889;50.058;8.688;2023-11-22T00:39:04;100979.78;;;8.91;62.26
3748;BME280;1889;50.058;8.688;2023-11-22T00:41:34;100983.33;;;9.08;62.08
3748;BME280;1889;50.058;8.688;2023-11-22T00:44:04;100985.91;;;9.02;62.28
3748;BME280;1889;50.058;8.688;2023-11-22T00:46:34;100989.45;;;9.13;62.32
3748;BME280;1889;50.058;8.688;2023-11-22T00:49:04;100990.37;;;9.30;62.08
3748;BME280;1889;50.058;8.688;2023-11-22T00:51:33;100992.14;;;9.40;61.87
3748;BME280;1889;50.058;8.688;2023-11-22T00:54:03;100985.10;;;9.23;62.25
3748;BME280;1889;50.058;8.688;2023-11-22T00:56:32;100989.04;;;9.23;62.43
3748;BME280;1889;50.058;8.688;2023-11-22T00:59:02;100992.11;;;9.36;62.26
3748;BME280;1889;50.058;8.688;2023-11-22T01:01:32;100994.72;;;9.33;62.41
3748;BME280;1889;50.058;8.688;2023-11-22T01:04:01;100992.55;;;9.35;62.33
3748;BME280;1889;50.058;8.688;2023-11-22T01:06:30;100990.34;;;9.26;62.69
3748;BME280;1889;50.058;8.688;2023-11-22T01:09:00;100991.23;;;9.23;62.91
3748;BME280;1889;50.058;8.688;2023-11-22T01:11:29;100996.30;;;8.68;64.50
3748;BME280;1889;50.058;8.688;2023-11-22T01:13:59;100997.77;;;9.06;63.72
3748;BME280;1889;50.058;8.688;2023-11-22T01:16:28;100993.34;;;9.01;63.78
3748;BME280;1889;50.058;8.688;2023-11-22T01:18:57;101000.18;;;8.50;65.01
3748;BME280;1889;50.058;8.688;2023-11-22T01:21:26;101000.44;;;8.24;66.45
3748;BME280;1889;50.058;8.688;2023-11-22T01:23:56;100997.62;;;8.65;65.61
3748;BME280;1889;50.058;8.688;2023-11-22T01:26:26;101003.74;;;7.97;67.11
3748;BME280;1889;50.058;8.688;2023-11-22T01:28:55;101007.33;;;8.11;67.29
3748;BME280;1889;50.058;8.688;2023-11-22T01:31:24;101013.11;;;8.24;66.97
3748;BME280;1889;50.058;8.688;2023-11-22T01:33:55;101009.73;;;8.43;66.22
3748;BME280;1889;50.058;8.688;2023-11-22T01:36:25;101012.25;;;8.28;66.61
3748;BME280;1889;50.058;8.688;2023-11-22T01:38:54;101021.62;;;7.91;68.22
3748;BME280;1889;50.058;8.688;2023-11-22T01:41:24;101017.77;;;8.00;67.88
3748;BME280;1889;50.058;8.688;2023-11-22T01:43:53;101019.59;;;8.11;67.73
3748;BME280;1889;50.058;8.688;2023-11-22T01:46:24;101019.22;;;8.23;67.28
3748;BME280;1889;50.058;8.688;2023-11-22T01:48:54;101025.20;;;8.01;67.36
3748;BME280;1889;50.058;8.688;2023-11-22T01:51:24;101032.70;;;8.14;67.59
3748;BME280;1889;50.058;8.688;2023-11-22T01:53:56;101037.06;;;8.10;67.66
3748;BME280;1889;50.058;8.688;2023-11-22T01:56:26;101035.08;;;7.82;68.45
3748;BME280;1889;50.058;8.688;2023-11-22T01:58:57;101049.97;;;7.40;69.70
3748;BME280;1889;50.058;8.688;2023-11-22T02:01:27;101047.71;;;7.79;68.99
3748;BME280;1889;50.058;8.688;2023-11-22T02:03:57;101048.61;;;7.78;69.19
3748;BME280;1889;50.058;8.688;2023-11-22T02:06:26;101048.73;;;7.96;68.59
3748;BME280;1889;50.058;8.688;2023-11-22T02:08:55;101057.45;;;7.95;68.34
3748;BME280;1889;50.058;8.688;2023-11-22T02:11:25;101053.13;;;7.50;68.91
3748;BME280;1889;50.058;8.688;2023-11-22T02:13:55;101060.60;;;7.53;69.93
3748;BME280;1889;50.058;8.688;2023-11-22T02:16:25;101065.04;;;7.63;69.83
3748;BME280;1889;50.058;8.688;2023-11-22T02:18:55;101064.96;;;8.02;68.62
3748;BME280;1889;50.058;8.688;2023-11-22T02:21:25;101071.13;;;7.59;69.17
3748;BME280;1889;50.058;8.688;2023-11-22T02:23:54;101073.55;;;7.87;69.05
3748;BME280;1889;50.058;8.688;2023-11-22T02:26:24;101075.58;;;8.22;67.69
3748;BME280;1889;50.058;8.688;2023-11-22T02:28:53;101077.25;;;7.60;69.19
3748;BME280;1889;50.058;8.688;2023-11-22T02:31:23;101083.66;;;7.92;68.80
3748;BME280;1889;50.058;8.688;2023-11-22T02:33:52;101085.58;;;8.15;68.12
3748;BME280;1889;50.058;8.688;2023-11-22T02:36:22;101083.91;;;8.27;67.33
3748;BME280;1889;50.058;8.688;2023-11-22T02:38:52;101088.80;;;8.31;67.07
3748;BME280;1889;50.058;8.688;2023-11-22T02:41:22;101090.14;;;8.37;67.19
3748;BME280;1889;50.058;8.688;2023-11-22T02:43:53;101084.36;;;8.25;67.00
3748;BME280;1889;50.058;8.688;2023-11-22T02:46:23;101085.75;;;8.36;67.06
3748;BME280;1889;50.058;8.688;2023-11-22T02:48:52;101074.83;;;8.33;66.88
3748;BME280;1889;50.058;8.688;2023-11-22T02:51:25;101070.91;;;7.83;67.58
3748;BME280;1889;50.058;8.688;2023-11-22T02:53:54;101061.50;;;8.08;67.52
3748;BME280;1889;50.058;8.688;2023-11-22T02:56:23;101063.06;;;7.40;68.21
3748;BME280;1889;50.058;8.688;2023-11-22T02:58:54;101062.12;;;7.79;67.38
3748;BME280;1889;50.058;8.688;2023-11-22T03:01:23;101061.54;;;7.63;67.16
3748;BME280;1889;50.058;8.688;2023-11-22T03:03:54;101059.03;;;7.74;67.49
3748;BME280;1889;50.058;8.688;2023-11-22T03:06:23;101061.96;;;7.59;67.19
3748;BME280;1889;50.058;8.688;2023-11-22T03:08:52;101067.81;;;7.34;68.10
3748;BME280;1889;50.058;8.688;2023-11-22T03:11:22;101071.04;;;7.10;68.45
3748;BME280;1889;50.058;8.688;2023-11-22T03:13:51;101080.48;;;7.35;68.66
3748;BME280;1889;50.058;8.688;2023-11-22T03:16:21;101089.19;;;7.34;68.59
3748;BME280;1889;50.058;8.688;2023-11-22T03:18:50;101096.55;;;7.71;67.63
3748;BME280;1889;50.058;8.688;2023-11-22T03:21:19;101101.19;;;7.99;66.56
3748;BME280;1889;50.058;8.688;2023-11-22T03:23:48;101105.95;;;7.94;66.85
3748;BME280;1889;50.058;8.688;2023-11-22T03:26:18;101109.51;;;8.03;66.50
3748;BME280;1889;50.058;8.688;2023-11-22T03:28:47;101111.82;;;8.19;66.01
3748;BME280;1889;50.058;8.688;2023-11-22T03:31:17;101114.00;;;7.68;66.01
3748;BME280;1889;50.058;8.688;2023-11-22T03:33:46;101120.58;;;7.72;67.03
3748;BME280;1889;50.058;8.688;2023-11-22T03:36:15;101121.17;;;7.88;66.84
3748;BME280;1889;50.058;8.688;2023-11-22T03:38:44;101120.44;;;8.04;66.14
3748;BME280;1889;50.058;8.688;2023-11-22T03:41:14;101121.32;;;8.05;66.27
3748;BME280;1889;50.058;8.688;2023-11-22T03:43:44;101117.75;;;7.97;65.94
3748;BME280;1889;50.058;8.688;2023-11-22T03:46:13;101119.70;;;8.21;65.06
3748;BME280;1889;50.058;8.688;2023-11-22T03:48:42;101121.60;;;7.88;65.99
3748;BME280;1889;50.058;8.688;2023-11-22T03:51:11;101123.02;;;7.55;66.09
3748;BME280;1889;50.058;8.688;2023-11-22T03:53:41;101125.26;;;7.59;67.01
3748;BME280;1889;50.058;8.688;2023-11-22T03:56:10;101127.56;;;6.98;68.52
3748;BME280;1889;50.058;8.688;2023-11-22T03:58:40;101142.17;;;7.14;68.13
3748;BME280;1889;50.058;8.688;2023-11-22T04:01:10;101153.89;;;7.08;67.76
3748;BME280;1889;50.058;8.688;2023-11-22T04:03:40;101162.44;;;6.66;68.98
3748;BME280;1889;50.058;8.688;2023-11-22T04:06:10;101164.48;;;6.56;69.88
3748;BME280;1889;50.058;8.688;2023-11-22T04:08:39;101171.05;;;6.59;68.96
3748;BME280;1889;50.058;8.688;2023-11-22T04:11:08;101172.40;;;6.91;68.76
3748;BME280;1889;50.058;8.688;2023-11-22T04:13:38;101178.94;;;6.91;68.55
3748;BME280;1889;50.058;8.688;2023-11-22T04:16:08;101187.27;;;6.36;68.35
3748;BME280;1889;50.058;8.688;2023-11-22T04:18:40;101197.72;;;6.36;70.21
3748;BME280;1889;50.058;8.688;2023-11-22T04:21:10;101208.94;;;6.56;69.44
3748;BME280;1889;50.058;8.688;2023-11-22T04:23:39;101209.00;;;6.60;68.82
3748;BME280;1889;50.058;8.688;2023-11-22T04:26:08;101210.63;;;6.27;69.83
3748;BME280;1889;50.058;8.688;2023-11-22T04:28:38;101224.92;;;5.98;70.98
3748;BME280;1889;50.058;8.688;2023-11-22T04:31:08;101229.91;;;6.34;70.01
3748;BME280;1889;50.058;8.688;2023-11-22T04:33:37;101232.87;;;5.40;72.02
3748;BME280;1889;50.058;8.688;2023-11-22T04:36:07;101231.80;;;5.94;71.44
3748;BME280;1889;50.058;8.688;2023-11-22T04:38:36;101230.95;;;5.53;71.95
3748;BME280;1889;50.058;8.688;2023-11-22T04:41:06;101240.34;;;6.09;70.78
3748;BME280;1889;50.058;8.688;2023-11-22T04:43:35;101236.11;;;6.39;69.66
3748;BME280;1889;50.058;8.688;2023-11-22T04:46:05;101247.26;;;5.84;69.86
3748;BME280;1889;50.058;8.688;2023-11-22T04:48:34;101233.46;;;5.89;70.46
3748;BME280;1889;50.058;8.688;2023-11-22T04:51:05;101240.89;;;5.49;70.63
3748;BME280;1889;50.058;8.688;2023-11-22T04:53:34;101235.47;;;5.82;71.34
3748;BME280;1889;50.058;8.688;2023-11-22T04:56:04;101226.80;;;6.30;70.17
3748;BME280;1889;50.058;8.688;2023-11-22T04:58:34;101227.27;;;6.59;69.23
3748;BME280;1889;50.058;8.688;2023-11-22T05:01:03;101229.80;;;6.28;68.96
3748;BME280;1889;50.058;8.688;2023-11-22T05:03:33;101227.34;;;6.62;69.13
3748;BME280;1889;50.058;8.688;2023-11-22T05:06:03;101240.00;;;6.92;68.27
3748;BME280;1889;50.058;8.688;2023-11-22T05:08:32;101238.15;;;7.12;67.40
3748;BME280;1889;50.058;8.688;2023-11-22T05:11:02;101243.59;;;7.27;66.90
3748;BME280;1889;50.058;8.688;2023-11-22T05:13:32;101241.62;;;6.57;66.39
3748;BME280;1889;50.058;8.688;2023-11-22T05:16:02;101251.72;;;6.11;68.96
3748;BME280;1889;50.058;8.688;2023-11-22T05:18:31;101251.66;;;6.58;68.23
3748;BME280;1889;50.058;8.688;2023-11-22T05:21:00;101255.70;;;6.65;67.58
3748;BME280;1889;50.058;8.688;2023-11-22T05:23:32;101255.77;;;6.95;66.57
3748;BME280;1889;50.058;8.688;2023-11-22T05:26:01;101266.73;;;7.00;66.62
3748;BME280;1889;50.058;8.688;2023-11-22T05:28:32;101273.42;;;7.09;66.67
3748;BME280;1889;50.058;8.688;2023-11-22T05:31:01;101265.31;;;7.20;66.39
3748;BME280;1889;50.058;8.688;2023-11-22T05:33:31;101259.22;;;7.23;66.49
3748;BME280;1889;50.058;8.688;2023-11-22T05:36:00;101267.28;;;7.38;65.68
3748;BME280;1889;50.058;8.688;2023-11-22T05:38:29;101275.44;;;7.27;65.54
3748;BME280;1889;50.058;8.688;2023-11-22T05:41:01;101279.41;;;7.32;65.11
3748;BME280;1889;50.058;8.688;2023-11-22T05:43:30;101281.61;;;7.32;65.04
3748;BME280;1889;50.058;8.688;2023-11-22T05:45:59;101289.62;;;7.43;65.08
3748;BME280;1889;50.058;8.688;2023-11-22T05:48:29;101284.55;;;7.24;64.67
3748;BME280;1889;50.058;8.688;2023-11-22T05:50:58;101288.36;;;7.47;64.42
3748;BME280;1889;50.058;8.688;2023-11-22T05:53:28;101284.63;;;7.28;63.90
3748;BME280;1889;50.058;8.688;2023-11-22T05:55:57;101295.18;;;7.35;64.24
3748;BME280;1889;50.058;8.688;2023-11-22T05:58:28;101295.69;;;7.40;64.33
3748;BME280;1889;50.058;8.688;2023-11-22T06:00:57;101300.76;;;7.59;64.05
3748;BME280;1889;50.058;8.688;2023-11-22T06:03:27;101300.05;;;7.10;63.54
3748;BME280;1889;50.058;8.688;2023-11-22T06:05:56;101307.75;;;6.48;64.35
3748;BME280;1889;50.058;8.688;2023-11-22T06:08:26;101313.38;;;6.71;65.02
3748;BME280;1889;50.058;8.688;2023-11-22T06:10:55;101310.41;;;7.03;64.25
3748;BME280;1889;50.058;8.688;2023-11-22T06:13:26;101317.80;;;7.02;63.98
3748;BME280;1889;50.058;8.688;2023-11-22T06:15:55;101316.79;;;7.20;63.46
3748;BME280;1889;50.058;8.688;2023-11-22T06:18:25;101324.67;;;7.21;63.64
3748;BME280;1889;50.058;8.688;2023-11-22T06:20:56;101332.52;;;7.23;63.89
3748;BME280;1889;50.058;8.688;2023-11-22T06:23:26;101329.68;;;7.36;63.49
3748;BME280;1889;50.058;8.688;2023-11-22T06:25:56;101341.69;;;6.95;63.81
3748;BME280;1889;50.058;8.688;2023-11-22T06:28:25;101348.39;;;7.06;64.48
3748;BME280;1889;50.058;8.688;2023-11-22T06:30:55;101351.70;;;7.20;64.10
3748;BME280;1889;50.058;8.688;2023-11-22T06:33:24;101362.78;;;7.32;63.73
3748;BME280;1889;50.058;8.688;2023-11-22T06:35:54;101359.50;;;7.17;63.96
3748;BME280;1889;50.058;8.688;2023-11-22T06:38:23;101360.77;;;7.16;64.02
3748;BME280;1889;50.058;8.688;2023-11-22T06:40:52;101378.00;;;7.02;63.86
3748;BME280;1889;50.058;8.688;2023-11-22T06:43:21;101377.76;;;7.13;64.00
3748;BME280;1889;50.058;8.688;2023-11-22T06:45:51;101376.45;;;7.14;64.02
3748;BME280;1889;50.058;8.688;2023-11-22T06:48:20;101376.12;;;7.19;63.89
3748;BME280;1889;50.058;8.688;2023-11-22T06:50:49;101377.97;;;7.26;63.80
3748;BME280;1889;50.058;8.688;2023-11-22T06:53:19;101384.03;;;7.24;63.80
3748;BME280;1889;50.058;8.688;2023-11-22T06:55:49;101382.56;;;7.13;63.90
3748;BME280;1889;50.058;8.688;2023-11-22T06:58:18;101381.63;;;7.10;64.26
3748;BME280;1889;50.058;8.688;2023-11-22T07:00:48;101374.41;;;7.23;63.34
3748;BME280;1889;50.058;8.688;2023-11-22T07:03:17;101364.42;;;7.25;63.18
3748;BME280;1889;50.058;8.688;2023-11-22T07:05:46;101375.69;;;7.20;62.81
3748;BME280;1889;50.058;8.688;2023-11-22T07:08:16;101371.28;;;7.17;62.66
3748;BME280;1889;50.058;8.688;2023-11-22T07:10:45;101384.47;;;6.72;62.94
3748;BME280;1889;50.058;8.688;2023-11-22T07:13:16;101391.25;;;6.39;63.51
3748;BME280;1889;50.058;8.688;2023-11-22T07:15:46;101393.96;;;5.85;64.88
3748;BME280;1889;50.058;8.688;2023-11-22T07:18:16;101407.20;;;6.31;64.93
3748;BME280;1889;50.058;8.688;2023-11-22T07:20:46;101404.65;;;6.56;64.28
3748;BME280;1889;50.058;8.688;2023-11-22T07:23:16;101400.45;;;6.66;64.12
3748;BME280;1889;50.058;8.688;2023-11-22T07:25:47;101406.97;;;6.42;64.17
3748;BME280;1889;50.058;8.688;2023-11-22T07:28:17;101411.42;;;6.46;63.33
3748;BME280;1889;50.058;8.688;2023-11-22T07:30:47;101398.99;;;6.57;64.15
3748;BME280;1889;50.058;8.688;2023-11-22T07:33:16;101407.36;;;6.39;64.05
3748;BME280;1889;50.058;8.688;2023-11-22T07:35:48;101408.72;;;6.65;64.20
3748;BME280;1889;50.058;8.688;2023-11-22T07:38:17;101406.13;;;6.90;63.87
3748;BME280;1889;50.058;8.688;2023-11-22T07:40:47;101406.42;;;5.95;63.43
3748;BME280;1889;50.058;8.688;2023-11-22T07:43:17;101414.01;;;6.23;64.72
3748;BME280;1889;50.058;8.688;2023-11-22T07:45:46;101415.42;;;6.51;64.49
3748;BME280;1889;50.058;8.688;2023-11-22T07:48:17;101418.61;;;6.81;64.13
3748;BME280;1889;50.058;8.688;2023-11-22T07:50:46;101417.45;;;6.66;63.80
3748;BME280;1889;50.058;8.688;2023-11-22T07:53:17;101415.91;;;7.00;63.38
3748;BME280;1889;50.058;8.688;2023-11-22T07:55:46;101407.44;;;6.90;62.99
3748;BME280;1889;50.058;8.688;2023-11-22T07:58:15;101404.41;;;6.67;62.11
3748;BME280;1889;50.058;8.688;2023-11-22T08:00:45;101404.19;;;6.78;63.41
3748;BME280;1889;50.058;8.688;2023-11-22T08:03:15;101403.44;;;6.39;63.49
3748;BME280;1889;50.058;8.688;2023-11-22T08:05:46;101404.23;;;6.58;63.51
3748;BME280;1889;50.058;8.688;2023-11-22T08:08:16;101404.33;;;6.86;62.91
3748;BME280;1889;50.058;8.688;2023-11-22T08:10:45;101403.94;;;6.89;62.69
3748;BME280;1889;50.058;8.688;2023-11-22T08:13:16;101409.74;;;6.73;62.82
3748;BME280;1889;50.058;8.688;2023-11-22T08:15:47;101407.89;;;6.91;62.92
3748;BME280;1889;50.058;8.688;2023-11-22T08:18:17;101407.86;;;6.89;62.78
3748;BME280;1889;50.058;8.688;2023-11-22T08:20:46;101405.18;;;7.10;62.23
3748;BME280;1889;50.058;8.688;2023-11-22T08:23:15;101413.63;;;6.70;61.07
3748;BME280;1889;50.058;8.688;2023-11-22T08:25:45;101416.30;;;6.08;61.53
3748;BME280;1889;50.058;8.688;2023-11-22T08:28:14;101423.35;;;6.32;63.17
3748;BME280;1889;50.058;8.688;2023-11-22T08:30:44;101420.87;;;5.98;62.69
3748;BME280;1889;50.058;8.688;2023-11-22T08:33:13;101424.30;;;5.78;64.42
3748;BME280;1889;50.058;8.688;2023-11-22T08:35:42;101419.70;;;6.26;63.79
3748;BME280;1889;50.058;8.688;2023-11-22T08:38:12;101419.73;;;6.47;62.73
3748;BME280;1889;50.058;8.688;2023-11-22T08:40:41;101423.77;;;7.00;61.67
3748;BME280;1889;50.058;8.688;2023-11-22T08:43:10;101430.94;;;6.01;62.19
3748;BME280;1889;50.058;8.688;2023-11-22T08:45:40;101430.09;;;6.02;63.92
3748;BME280;1889;50.058;8.688;2023-11-22T08:48:11;101430.45;;;6.61;62.82
3748;BME280;1889;50.058;8.688;2023-11-22T08:50:42;101432.15;;;6.17;61.54
3748;BME280;1889;50.058;8.688;2023-11-22T08:53:12;101434.27;;;6.55;62.49
3748;BME280;1889;50.058;8.688;2023-11-22T08:55:42;101438.86;;;6.04;61.61
3748;BME280;1889;50.058;8.688;2023-11-22T08:58:11;101432.24;;;6.00;63.29
3748;BME280;1889;50.058;8.688;2023-11-22T09:00:42;101436.50;;;6.37;61.62
3748;BME280;1889;50.058;8.688;2023-11-22T09:03:13;101441.84;;;6.21;62.35
3748;BME280;1889;50.058;8.688;2023-11-22T09:05:43;101442.31;;;5.66;63.32
3748;BME280;1889;50.058;8.688;2023-11-22T09:08:14;101451.05;;;5.32;63.37
3748;BME280;1889;50.058;8.688;2023-11-22T09:10:43;101458.20;;;5.76;63.62
3748;BME280;1889;50.058;8.688;2023-11-22T09:13:13;101459.26;;;6.02;62.49
3748;BME280;1889;50.058;8.688;2023-11-22T09:15:44;101450.78;;;6.12;62.25
3748;BME280;1889;50.058;8.688;2023-11-22T09:18:13;101452.38;;;6.26;61.62
3748;BME280;1889;50.058;8.688;2023-11-22T09:20:42;101443.33;;;6.72;60.81
3748;BME280;1889;50.058;8.688;2023-11-22T09:23:15;101452.23;;;6.38;60.08
3748;BME280;1889;50.058;8.688;2023-11-22T09:25:45;101450.08;;;6.41;60.64
3748;BME280;1889;50.058;8.688;2023-11-22T09:28:14;101448.80;;;5.64;60.23
3748;BME280;1889;50.058;8.688;2023-11-22T09:30:44;101451.47;;;5.49;61.34
3748;BME280;1889;50.058;8.688;2023-11-22T09:33:15;101456.77;;;6.06;61.03
3748;BME280;1889;50.058;8.688;2023-11-22T09:35:46;101459.58;;;5.61;61.33
3748;BME280;1889;50.058;8.688;2023-11-22T09:38:16;101462.83;;;6.24;61.05
3748;BME280;1889;50.058;8.688;2023-11-22T09:40:47;101472.14;;;6.33;58.61
3748;BME280;1889;50.058;8.688;2023-11-22T09:43:20;101474.22;;;6.07;59.72
3748;BME280;1889;50.058;8.688;2023-11-22T09:45:51;101484.25;;;6.70;59.20
3748;BME280;1889;50.058;8.688;2023-11-22T09:48:23;101480.20;;;6.22;57.45
3748;BME280;1889;50.058;8.688;2023-11-22T09:53:47;101488.16;;;6.08;58.76
3748;BME280;1889;50.058;8.688;2023-11-22T09:56:15;101484.28;;;5.91;58.94
3748;BME280;1889;50.058;8.688;2023-11-22T09:58:49;101474.75;;;6.32;58.35
3748;BME280;1889;50.058;8.688;2023-11-22T10:01:19;101473.95;;;6.58;57.44
3748;BME280;1889;50.058;8.688;2023-11-22T10:03:50;101479.66;;;5.98;58.53
3748;BME280;1889;50.058;8.688;2023-11-22T10:06:19;101487.60;;;6.43;58.09
3748;BME280;1889;50.058;8.688;2023-11-22T10:08:48;101482.41;;;6.66;57.21
3748;BME280;1889;50.058;8.688;2023-11-22T10:11:19;101482.01;;;6.26;57.22
3748;BME280;1889;50.058;8.688;2023-11-22T10:13:51;101492.18;;;6.75;57.23
3748;BME280;1889;50.058;8.688;2023-11-22T10:16:20;101497.22;;;6.64;56.85
3748;BME280;1889;50.058;8.688;2023-11-22T10:18:50;101488.62;;;7.16;56.62
3748;BME280;1889;50.058;8.688;2023-11-22T10:21:28;101484.13;;;7.09;56.50
3748;BME280;1889;50.058;8.688;2023-11-22T10:24:03;101503.09;;;7.19;56.71
3748;BME280;1889;50.058;8.688;2023-11-22T10:26:32;101512.95;;;6.27;55.99
3748;BME280;1889;50.058;8.688;2023-11-22T10:29:03;101517.38;;;6.10;57.65
3748;BME280;1889;50.058;8.688;2023-11-22T10:31:34;101508.89;;;6.39;56.58
3748;BME280;1889;50.058;8.688;2023-11-22T10:34:03;101506.20;;;6.16;57.32
3748;BME280;1889;50.058;8.688;2023-11-22T10:36:33;101503.38;;;6.68;56.52
3748;BME280;1889;50.058;8.688;2023-11-22T10:39:02;101501.14;;;6.64;56.88
3748;BME280;1889;50.058;8.688;2023-11-22T10:41:31;101508.82;;;7.00;56.44
3748;BME280;1889;50.058;8.688;2023-11-22T10:44:02;101493.41;;;6.50;54.21
3748;BME280;1889;50.058;8.688;2023-11-22T10:46:32;101492.34;;;6.20;56.43
3748;BME280;1889;50.058;8.688;2023-11-22T10:49:01;101493.67;;;6.40;56.19
3748;BME280;1889;50.058;8.688;2023-11-22T10:51:31;101501.08;;;7.06;55.77
3748;BME280;1889;50.058;8.688;2023-11-22T10:54:02;101504.44;;;7.47;55.04
3748;BME280;1889;50.058;8.688;2023-11-22T10:56:41;101508.56;;;7.58;54.40
3748;BME280;1889;50.058;8.688;2023-11-22T10:59:13;101520.05;;;7.92;53.78
3748;BME280;1889;50.058;8.688;2023-11-22T11:01:44;101528.61;;;6.66;52.93
3748;BME280;1889;50.058;8.688;2023-11-22T11:06:55;101524.72;;;6.87;54.31
3748;BME280;1889;50.058;8.688;2023-11-22T11:09:26;101531.84;;;7.41;53.31
3748;BME280;1889;50.058;8.688;2023-11-22T11:11:58;101540.81;;;7.55;53.37
3748;BME280;1889;50.058;8.688;2023-11-22T11:14:28;101550.05;;;6.88;53.83
3748;BME280;1889;50.058;8.688;2023-11-22T11:16:58;101563.30;;;7.19;52.20
3748;BME280;1889;50.058;8.688;2023-11-22T11:19:27;101560.16;;;6.72;54.06
3748;BME280;1889;50.058;8.688;2023-11-22T11:22:00;101564.40;;;7.32;53.06
3748;BME280;1889;50.058;8.688;2023-11-22T11:24:29;101557.80;;;7.52;53.23
3748;BME280;1889;50.058;8.688;2023-11-22T11:27:02;101566.39;;;7.69;52.64
3748;BME280;1889;50.058;8.688;2023-11-22T11:29:32;101559.14;;;8.07;51.69
3748;BME280;1889;50.058;8.688;2023-11-22T11:32:05;101558.34;;;8.12;51.89
3748;BME280;1889;50.058;8.688;2023-11-22T11:34:49;101555.73;;;7.84;51.44
3748;BME280;1889;50.058;8.688;2023-11-22T11:37:20;101563.35;;;6.79;51.53
3748;BME280;1889;50.058;8.688;2023-11-22T11:39:51;101574.27;;;7.23;51.65
3748;BME280;1889;50.058;8.688;2023-11-22T11:42:20;101573.66;;;6.13;52.32
3748;BME280;1889;50.058;8.688;2023-11-22T11:45:04;101563.64;;;5.96;54.29
3748;BME280;1889;50.058;8.688;2023-11-22T11:47:35;101569.27;;;6.70;53.41
3748;BME280;1889;50.058;8.688;2023-11-22T11:50:04;101581.28;;;6.81;53.15
3748;BME280;1889;50.058;8.688;2023-11-22T11:52:35;101587.95;;;7.09;52.81
3748;BME280;1889;50.058;8.688;2023-11-22T11:55:06;101576.03;;;7.24;52.24
3748;BME280;1889;50.058;8.688;2023-11-22T11:57:35;101569.13;;;7.76;51.50
3748;BME280;1889;50.058;8.688;2023-11-22T12:00:05;101569.75;;;7.86;50.72
3748;BME280;1889;50.058;8.688;2023-11-22T12:02:37;101556.38;;;7.97;50.85
3748;BME280;1889;50.058;8.688;2023-11-22T12:05:07;101551.34;;;8.10;50.19
3748;BME280;1889;50.058;8.688;2023-11-22T12:07:39;101556.55;;;8.36;49.62
3748;BME280;1889;50.058;8.688;2023-11-22T12:10:09;101560.14;;;8.41;49.31
3748;BME280;1889;50.058;8.688;2023-11-22T12:12:38;101550.48;;;8.11;49.83
3748;BME280;1889;50.058;8.688;2023-11-22T12:15:08;101534.68;;;8.35;49.83
3748;BME280;1889;50.058;8.688;2023-11-22T12:17:38;101526.17;;;8.50;50.03
3748;BME280;1889;50.058;8.688;2023-11-22T12:20:13;101521.95;;;8.63;49.23
3748;BME280;1889;50.058;8.688;2023-11-22T12:22:44;101521.11;;;8.65;49.27
3748;BME280;1889;50.058;8.688;2023-11-22T12:25:14;101515.08;;;8.72;48.18
3748;BME280;1889;50.058;8.688;2023-11-22T12:27:44;101514.53;;;8.64;49.13
3748;BME280;1889;50.058;8.688;2023-11-22T12:30:30;101514.98;;;8.65;48.62
3748;BME280;1889;50.058;8.688;2023-11-22T12:33:04;101518.67;;;8.80;48.60
3748;BME280;1889;50.058;8.688;2023-11-22T12:35:35;101522.72;;;7.97;48.86
3748;BME280;1889;50.058;8.688;2023-11-22T12:38:06;101528.20;;;8.40;48.93
3748;BME280;1889;50.058;8.688;2023-11-22T12:40:36;101513.34;;;8.73;47.79
3748;BME280;1889;50.058;8.688;2023-11-22T12:43:05;101516.50;;;8.82;48.20
3748;BME280;1889;50.058;8.688;2023-11-22T12:45:36;101530.08;;;8.83;48.64
3748;BME280;1889;50.058;8.688;2023-11-22T12:48:23;101524.69;;;8.10;48.26
3748;BME280;1889;50.058;8.688;2023-11-22T12:50:53;101525.13;;;7.09;48.44
3748;BME280;1889;50.058;8.688;2023-11-22T12:53:23;101536.52;;;6.47;50.65
3748;BME280;1889;50.058;8.688;2023-11-22T12:55:55;101537.56;;;6.97;50.98
3748;BME280;1889;50.058;8.688;2023-11-22T12:58:26;101536.60;;;6.51;50.15
3748;BME280;1889;50.058;8.688;2023-11-22T13:00:56;101537.56;;;6.55;50.71
3748;BME280;1889;50.058;8.688;2023-11-22T13:03:28;101531.03;;;6.77;51.30
3748;BME280;1889;50.058;8.688;2023-11-22T13:05:58;101535.27;;;7.37;50.51
3748;BME280;1889;50.058;8.688;2023-11-22T13:08:27;101529.64;;;7.41;48.97
3748;BME280;1889;50.058;8.688;2023-11-22T13:10:59;101520.05;;;7.66;50.32
3748;BME280;1889;50.058;8.688;2023-11-22T13:13:29;101517.91;;;7.69;50.21
3748;BME280;1889;50.058;8.688;2023-11-22T13:15:59;101507.39;;;7.95;49.43
3748;BME280;1889;50.058;8.688;2023-11-22T13:18:28;101507.51;;;7.00;49.53
3748;BME280;1889;50.058;8.688;2023-11-22T13:20:57;101505.46;;;7.07;50.23
3748;BME280;1889;50.058;8.688;2023-11-22T13:23:26;101488.23;;;7.71;49.55
3748;BME280;1889;50.058;8.688;2023-11-22T13:25:56;101484.37;;;8.03;48.48
3748;BME280;1889;50.058;8.688;2023-11-22T13:28:25;101478.27;;;8.04;49.05
3748;BME280;1889;50.058;8.688;2023-11-22T13:30:54;101473.77;;;7.96;49.36
3748;BME280;1889;50.058;8.688;2023-11-22T13:33:24;101471.72;;;8.32;48.38
3748;BME280;1889;50.058;8.688;2023-11-22T13:35:53;101470.63;;;8.49;48.42
3748;BME280;1889;50.058;8.688;2023-11-22T13:38:22;101455.42;;;7.96;49.41
3748;BME280;1889;50.058;8.688;2023-11-22T13:40:51;101453.50;;;8.43;48.69
3748;BME280;1889;50.058;8.688;2023-11-22T13:43:21;101458.09;;;8.62;48.41